createdAt,value
2022-10-09T00:01:26.853Z,101529.28
2022-10-09T00:03:56.562Z,101528.41
2022-10-09T00:06:33.733Z,101524.97
2022-10-09T00:09:02.579Z,101531.38
2022-10-09T00:11:32.794Z,101536.81
2022-10-09T00:14:00.982Z,101530.63
2022-10-09T00:16:29.063Z,101538.91
2022-10-09T00:18:57.354Z,101536.19
2022-10-09T00:21:28.472Z,101541.59
2022-10-09T00:23:58.767Z,101539.00
2022-10-09T00:26:26.609Z,101536.44
2022-10-09T00:28:54.392Z,101536.56
2022-10-09T00:31:22.026Z,101536.56
2022-10-09T00:33:49.344Z,101538.41
2022-10-09T00:36:21.071Z,101541.97
2022-10-09T00:38:48.128Z,101534.00
2022-10-09T00:41:20.210Z,101525.00
2022-10-09T00:43:55.655Z,101532.13
2022-10-09T00:46:50.389Z,101521.44
2022-10-09T00:49:32.579Z,101525.25
2022-10-09T00:52:04.319Z,101519.00
2022-10-09T00:54:35.294Z,101525.38
2022-10-09T00:57:02.701Z,101526.25
2022-10-09T00:59:30.892Z,101520.84
2022-10-09T01:01:58.570Z,101514.53
2022-10-09T01:04:25.806Z,101514.53
2022-10-09T01:07:17.467Z,101515.41
2022-10-09T01:09:59.021Z,101519.09
2022-10-09T01:13:09.056Z,101515.69
2022-10-09T01:15:44.703Z,101516.66
2022-10-09T01:18:23.982Z,101526.63
2022-10-09T01:21:26.721Z,101523.94
2022-10-09T01:24:22.249Z,101515.06
2022-10-09T01:27:07.383Z,101514.47
2022-10-09T01:29:41.492Z,101519.75
2022-10-09T01:32:13.300Z,101509.94
2022-10-09T01:34:42.817Z,101512.50
2022-10-09T01:37:11.838Z,101520.63
2022-10-09T01:39:40.338Z,101515.19
2022-10-09T01:42:07.914Z,101519.75
2022-10-09T01:44:35.638Z,101520.63
2022-10-09T01:47:05.136Z,101521.63
2022-10-09T01:49:54.170Z,101522.59
2022-10-09T01:52:30.030Z,101529.16
2022-10-09T01:55:27.540Z,101522.84
2022-10-09T01:58:05.209Z,101523.84
2022-10-09T02:00:38.366Z,101520.28
2022-10-09T02:03:10.788Z,101518.41
2022-10-09T02:05:40.674Z,101520.13
2022-10-09T02:08:10.154Z,101512.00
2022-10-09T02:10:38.798Z,101515.59
2022-10-09T02:13:07.338Z,101508.44
2022-10-09T02:15:59.010Z,101515.59
2022-10-09T02:18:37.607Z,101509.56
2022-10-09T02:21:15.425Z,101508.84
2022-10-09T02:23:50.068Z,101512.25
2022-10-09T02:26:19.378Z,101509.69
2022-10-09T02:28:47.646Z,101510.44
2022-10-09T02:31:24.230Z,101519.53
2022-10-09T02:33:58.291Z,101510.81
2022-10-09T02:36:26.749Z,101503.53
2022-10-09T02:38:55.690Z,101507.97
2022-10-09T02:41:23.217Z,101509.69
2022-10-09T02:43:51.077Z,101514.25
2022-10-09T02:46:18.857Z,101513.25
2022-10-09T02:48:46.122Z,101514.25
2022-10-09T02:51:13.429Z,101515.13
2022-10-09T02:53:40.424Z,101516.13
2022-10-09T02:56:07.441Z,101513.25
2022-10-09T02:58:38.191Z,101517.97
2022-10-09T03:01:06.383Z,101517.81
2022-10-09T03:03:33.597Z,101519.78
2022-10-09T03:06:11.588Z,101518.81
2022-10-09T03:08:42.402Z,101517.06
2022-10-09T03:11:10.225Z,101514.25
2022-10-09T03:13:39.644Z,101517.81
2022-10-09T03:16:17.675Z,101514.25
2022-10-09T03:18:46.457Z,101513.66
2022-10-09T03:21:23.102Z,101512.91
2022-10-09T03:23:51.365Z,101514.78
2022-10-09T03:26:22.105Z,101514.63
2022-10-09T03:28:50.957Z,101517.22
2022-10-09T03:31:46.974Z,101511.81
2022-10-09T03:34:07.525Z,101518.94
2022-10-09T03:36:34.427Z,101522.50
2022-10-09T03:39:01.478Z,101526.09
2022-10-09T03:41:28.439Z,101517.97
2022-10-09T03:43:55.933Z,101526.09
2022-10-09T03:46:23.197Z,101522.38
2022-10-09T03:48:50.176Z,101524.94
2022-10-09T03:51:17.180Z,101524.09
2022-10-09T03:53:44.207Z,101526.69
2022-10-09T03:56:11.225Z,101522.13
2022-10-09T03:58:39.023Z,101525.69
2022-10-09T04:01:06.245Z,101526.56
2022-10-09T04:03:33.194Z,101530.97
2022-10-09T04:06:00.239Z,101530.97
2022-10-09T04:08:27.720Z,101536.53
2022-10-09T04:10:59.265Z,101532.81
2022-10-09T04:13:26.598Z,101535.69
2022-10-09T04:15:54.820Z,101527.56
2022-10-09T04:18:22.643Z,101533.81
2022-10-09T04:20:55.313Z,101531.13
2022-10-09T04:23:27.101Z,101532.97
2022-10-09T04:25:56.206Z,101528.41
2022-10-09T04:28:23.657Z,101525.81
2022-10-09T04:30:51.310Z,101533.09
2022-10-09T04:33:18.761Z,101530.38
2022-10-09T04:35:50.124Z,101541.22
2022-10-09T04:38:17.355Z,101534.94
2022-10-09T04:40:44.851Z,101546.63
2022-10-09T04:43:12.051Z,101539.34
2022-10-09T04:45:40.610Z,101549.34
2022-10-09T04:48:07.547Z,101548.63
2022-10-09T04:50:34.462Z,101545.06
2022-10-09T04:53:01.380Z,101544.19
2022-10-09T04:55:28.466Z,101542.47
2022-10-09T04:57:55.357Z,101549.75
2022-10-09T05:00:22.613Z,101549.75
2022-10-09T05:02:49.804Z,101559.56
2022-10-09T05:05:16.966Z,101555.00
2022-10-09T05:07:43.840Z,101556.88
2022-10-09T05:10:14.524Z,101555.91
2022-10-09T05:12:55.931Z,101559.56
2022-10-09T05:15:32.510Z,101555.16
2022-10-09T05:18:13.019Z,101555.16
2022-10-09T05:20:51.727Z,101552.44
2022-10-09T05:23:24.424Z,101561.44
2022-10-09T05:26:01.426Z,101567.69
2022-10-09T05:28:28.954Z,101563.28
2022-10-09T05:30:56.434Z,101573.13
2022-10-09T05:33:23.586Z,101573.25
2022-10-09T05:35:56.910Z,101563.53
2022-10-09T05:38:25.820Z,101565.41
2022-10-09T05:41:05.958Z,101573.63
2022-10-09T05:43:40.601Z,101574.63
2022-10-09T05:46:19.486Z,101572.06
2022-10-09T05:49:05.614Z,101576.47
2022-10-09T05:51:37.351Z,101583.00
2022-10-09T05:54:06.287Z,101587.56
2022-10-09T05:56:39.292Z,101596.56
2022-10-09T05:59:14.846Z,101591.28
2022-10-09T06:01:45.349Z,101593.09
2022-10-09T06:04:21.853Z,101594.22
2022-10-09T06:06:49.756Z,101599.66
2022-10-09T06:09:22.058Z,101601.50
2022-10-09T06:11:50.915Z,101600.75
2022-10-09T06:14:20.740Z,101610.59
2022-10-09T06:16:47.907Z,101611.59
2022-10-09T06:19:18.123Z,101609.13
2022-10-09T06:21:45.933Z,101615.31
2022-10-09T06:24:29.110Z,101616.16
2022-10-09T06:26:57.808Z,101608.88
2022-10-09T06:29:25.954Z,101625.00
2022-10-09T06:31:53.708Z,101627.59
2022-10-09T06:34:21.018Z,101629.31
2022-10-09T06:36:48.270Z,101631.03
2022-10-09T06:39:15.456Z,101634.47
2022-10-09T06:41:42.583Z,101635.34
2022-10-09T06:44:29.364Z,101636.09
2022-10-09T06:46:56.558Z,101643.09
2022-10-09T06:49:27.112Z,101638.66
2022-10-09T06:51:54.083Z,101639.66
2022-10-09T06:54:21.029Z,101648.53
2022-10-09T06:56:47.989Z,101648.63
2022-10-09T06:59:15.384Z,101656.66
2022-10-09T07:01:43.582Z,101663.91
2022-10-09T07:04:14.717Z,101669.34
2022-10-09T07:06:45.186Z,101659.59
2022-10-09T07:09:15.476Z,101664.03
2022-10-09T07:11:46.923Z,101670.19
2022-10-09T07:14:18.593Z,101674.88
2022-10-09T07:16:48.425Z,101674.88
2022-10-09T07:19:17.723Z,101681.03
2022-10-09T07:21:48.675Z,101679.03
2022-10-09T07:24:17.111Z,101679.91
2022-10-09T07:26:46.405Z,101679.78
2022-10-09T07:29:16.171Z,101682.50
2022-10-09T07:31:44.023Z,101679.53
2022-10-09T07:34:11.351Z,101683.97
2022-10-09T07:36:38.596Z,101686.56
2022-10-09T07:39:06.277Z,101680.16
2022-10-09T07:41:34.117Z,101689.75
2022-10-09T07:44:03.079Z,101692.19
2022-10-09T07:46:33.697Z,101699.34
2022-10-09T07:49:03.395Z,101701.94
2022-10-09T07:51:32.297Z,101698.97
2022-10-09T07:54:02.507Z,101700.44
2022-10-09T07:56:36.347Z,101693.66
2022-10-09T07:59:11.546Z,101693.78
2022-10-09T08:01:40.888Z,101688.69
2022-10-09T08:04:10.559Z,101696.50
2022-10-09T08:06:38.036Z,101700.56
2022-10-09T08:09:07.138Z,101695.75
2022-10-09T08:11:35.725Z,101699.91
2022-10-09T08:14:02.889Z,101702.38
2022-10-09T08:16:34.894Z,101707.41
2022-10-09T08:19:05.127Z,101704.69
2022-10-09T08:21:33.202Z,101707.28
2022-10-09T08:24:03.173Z,101708.91
2022-10-09T08:26:31.731Z,101713.31
2022-10-09T08:29:02.632Z,101713.19
2022-10-09T08:31:33.353Z,101711.72
2022-10-09T08:34:03.440Z,101708.16
2022-10-09T08:36:32.093Z,101714.44
2022-10-09T08:38:59.710Z,101717.03
2022-10-09T08:41:33.201Z,101707.91
2022-10-09T08:44:06.503Z,101717.88
2022-10-09T08:46:45.707Z,101710.47
2022-10-09T08:49:26.328Z,101704.78
2022-10-09T08:52:00.243Z,101717.38
2022-10-09T08:54:35.485Z,101718.50
2022-10-09T08:57:11.343Z,101723.66
2022-10-09T08:59:45.947Z,101723.41
2022-10-09T09:02:38.214Z,101721.53
2022-10-09T09:05:43.209Z,101721.53
2022-10-09T09:08:17.136Z,101725.13
2022-10-09T09:10:53.819Z,101724.50
2022-10-09T09:13:54.077Z,101730.53
2022-10-09T09:16:39.986Z,101734.84
2022-10-09T09:19:34.252Z,101732.41
2022-10-09T09:22:02.229Z,101734.84
2022-10-09T09:24:56.090Z,101730.44
2022-10-09T09:27:39.162Z,101735.84
2022-10-09T09:30:12.172Z,101737.41
2022-10-09T09:33:12.615Z,101739.28
2022-10-09T09:35:56.351Z,101733.59
2022-10-09T09:38:23.462Z,101732.59
2022-10-09T09:40:58.300Z,101736.06
2022-10-09T09:43:26.973Z,101735.06
2022-10-09T09:45:58.216Z,101734.78
2022-10-09T09:48:45.901Z,101738.25
2022-10-09T09:51:29.338Z,101736.28
2022-10-09T09:54:04.178Z,101741.41
2022-10-09T09:57:11.195Z,101734.16
2022-10-09T09:59:42.160Z,101733.03
2022-10-09T10:02:19.353Z,101731.66
2022-10-09T10:05:00.446Z,101732.38
2022-10-09T10:07:36.997Z,101729.16
2022-10-09T10:10:10.025Z,101723.25
2022-10-09T10:12:43.473Z,101721.72
2022-10-09T10:15:37.243Z,101724.06
2022-10-09T10:18:08.106Z,101718.00
2022-10-09T10:21:03.196Z,101713.06
2022-10-09T10:26:43.662Z,101707.88
2022-10-09T10:29:37.077Z,101704.72
2022-10-09T10:32:32.353Z,101706.16
2022-10-09T10:35:29.754Z,101701.03
2022-10-09T10:38:13.330Z,101704.78
2022-10-09T10:40:58.009Z,101702.06
2022-10-09T10:43:53.835Z,101701.19
2022-10-09T10:46:33.660Z,101692.78
2022-10-09T10:49:01.233Z,101696.69
2022-10-09T10:51:58.809Z,101692.56
2022-10-09T10:54:41.139Z,101689.56
2022-10-09T10:57:39.537Z,101690.00
2022-10-09T11:00:11.235Z,101684.72
2022-10-09T11:02:52.430Z,101680.16
2022-10-09T11:05:42.249Z,101681.31
2022-10-09T11:08:44.540Z,101673.88
2022-10-09T11:11:22.368Z,101677.47
2022-10-09T11:14:05.670Z,101674.03
2022-10-09T11:16:59.997Z,101667.28
2022-10-09T11:19:45.848Z,101668.88
2022-10-09T11:22:44.531Z,101667.59
2022-10-09T11:25:22.981Z,101667.00
2022-10-09T11:28:06.894Z,101655.69
2022-10-09T11:30:47.175Z,101656.84
2022-10-09T11:33:40.141Z,101652.28
2022-10-09T11:36:16.907Z,101650.84
2022-10-09T11:39:06.047Z,101643.09
2022-10-09T11:41:36.203Z,101636.78
2022-10-09T11:44:50.512Z,101633.75
2022-10-09T11:47:44.038Z,101633.75
2022-10-09T11:50:33.166Z,101623.88
2022-10-09T11:53:15.542Z,101629.63
2022-10-09T11:55:43.454Z,101619.59
2022-10-09T11:58:31.705Z,101617.88
2022-10-09T12:01:22.309Z,101614.31
2022-10-09T12:04:02.290Z,101610.13
2022-10-09T12:06:30.408Z,101607.97
2022-10-09T12:09:01.148Z,101604.50
2022-10-09T12:11:29.962Z,101600.91
2022-10-09T12:14:01.911Z,101596.41
2022-10-09T12:16:38.092Z,101592.09
2022-10-09T12:19:25.674Z,101582.75
2022-10-09T12:22:06.911Z,101587.22
2022-10-09T12:24:42.171Z,101579.88
2022-10-09T12:27:22.717Z,101590.63
2022-10-09T12:29:58.386Z,101584.19
2022-10-09T12:32:37.726Z,101580.56
2022-10-09T12:35:17.882Z,101578.75
2022-10-09T12:37:44.898Z,101576.72
2022-10-09T12:40:26.397Z,101581.03
2022-10-09T12:43:07.846Z,101573.72
2022-10-09T12:45:49.871Z,101576.44
2022-10-09T12:48:25.922Z,101569.53
2022-10-09T12:50:53.898Z,101560.38
2022-10-09T12:53:27.261Z,101567.84
2022-10-09T12:55:59.620Z,101567.97
2022-10-09T12:58:31.389Z,101560.94
2022-10-09T13:01:06.545Z,101559.28
2022-10-09T13:03:43.419Z,101563.03
2022-10-09T13:06:20.825Z,101563.03
2022-10-09T13:09:01.643Z,101559.75
2022-10-09T13:11:43.943Z,101556.88
2022-10-09T13:14:46.159Z,101555.28
2022-10-09T13:17:37.231Z,101553.88
2022-10-09T13:20:16.364Z,101556.78
2022-10-09T13:23:05.885Z,101549.59
2022-10-09T13:25:37.790Z,101550.44
2022-10-09T13:28:05.437Z,101546.19
2022-10-09T13:30:33.408Z,101548.75
2022-10-09T13:33:00.953Z,101541.72
2022-10-09T13:35:28.107Z,101542.75
2022-10-09T13:37:55.112Z,101544.44
2022-10-09T13:40:22.724Z,101543.00
2022-10-09T13:42:55.160Z,101534.78
2022-10-09T13:45:22.895Z,101532.84
2022-10-09T13:47:50.941Z,101543.59
2022-10-09T13:50:19.785Z,101535.13
2022-10-09T13:52:47.212Z,101526.66
2022-10-09T13:55:14.738Z,101531.88
2022-10-09T13:57:41.822Z,101525.50
2022-10-09T14:00:09.872Z,101525.44
2022-10-09T14:02:39.903Z,101528.09
2022-10-09T14:05:08.730Z,101518.25
2022-10-09T14:07:36.021Z,101523.53
2022-10-09T14:10:05.004Z,101523.94
2022-10-09T14:12:32.419Z,101519.75
2022-10-09T14:14:59.711Z,101520.16
2022-10-09T14:17:26.839Z,101515.41
2022-10-09T14:19:54.995Z,101515.41
2022-10-09T14:22:22.325Z,101516.25
2022-10-09T14:24:49.550Z,101511.13
2022-10-09T14:27:16.657Z,101508.84
2022-10-09T14:29:43.583Z,101500.78
2022-10-09T14:32:11.213Z,101502.34
2022-10-09T14:34:39.677Z,101505.09
2022-10-09T14:37:18.500Z,101500.78
2022-10-09T14:39:52.835Z,101500.97
2022-10-09T14:42:20.299Z,101496.84
2022-10-09T14:44:47.625Z,101498.31
2022-10-09T14:47:14.904Z,101488.59
2022-10-09T14:49:42.291Z,101495.19
2022-10-09T14:52:09.336Z,101492.94
2022-10-09T14:54:36.697Z,101491.56
2022-10-09T14:57:04.323Z,101491.69
2022-10-09T14:59:31.582Z,101492.47
2022-10-09T15:01:59.114Z,101497.94
2022-10-09T15:04:26.927Z,101490.22
2022-10-09T15:06:54.353Z,101489.34
2022-10-09T15:09:21.481Z,101487.97
2022-10-09T15:11:48.652Z,101485.53
2022-10-09T15:14:15.707Z,101490.13
2022-10-09T15:16:42.679Z,101490.28
2022-10-09T15:19:09.739Z,101489.41
2022-10-09T15:21:36.965Z,101482.41
2022-10-09T15:24:05.953Z,101487.84
2022-10-09T15:26:38.405Z,101489.91
2022-10-09T15:29:07.431Z,101483.72
2022-10-09T15:31:37.463Z,101490.22
2022-10-09T15:34:05.994Z,101482.16
2022-10-09T15:36:37.495Z,101487.78
2022-10-09T15:39:08.975Z,101479.75
2022-10-09T15:41:39.718Z,101489.09
2022-10-09T15:44:17.822Z,101478.34
2022-10-09T15:46:46.446Z,101479.50
2022-10-09T15:49:13.887Z,101481.66
2022-10-09T15:51:41.245Z,101478.94
2022-10-09T15:54:08.553Z,101481.09
2022-10-09T15:56:39.683Z,101484.97
2022-10-09T15:59:07.968Z,101472.53
2022-10-09T16:01:34.997Z,101471.84
2022-10-09T16:04:01.996Z,101473.84
2022-10-09T16:06:29.202Z,101468.84
2022-10-09T16:08:59.258Z,101465.41
2022-10-09T16:11:27.168Z,101477.34
2022-10-09T16:13:55.625Z,101480.22
2022-10-09T16:16:27.475Z,101475.75
2022-10-09T16:18:56.740Z,101483.25
2022-10-09T16:21:28.078Z,101484.22
2022-10-09T16:23:58.697Z,101483.53
2022-10-09T16:26:28.439Z,101488.28
2022-10-09T16:28:55.547Z,101485.84
2022-10-09T16:31:28.440Z,101491.59
2022-10-09T16:33:55.807Z,101488.31
2022-10-09T16:36:23.693Z,101494.91
2022-10-09T16:38:50.808Z,101478.88
2022-10-09T16:41:21.175Z,101485.34
2022-10-09T16:43:52.296Z,101482.91
2022-10-09T16:49:07.052Z,101496.09
2022-10-09T16:51:36.539Z,101502.56
2022-10-09T16:54:05.768Z,101500.13
2022-10-09T16:56:37.986Z,101502.16
2022-10-09T16:59:10.281Z,101509.63
2022-10-09T17:01:42.387Z,101518.06
2022-10-09T17:04:10.080Z,101512.91
2022-10-09T17:06:37.243Z,101515.94
2022-10-09T17:09:13.699Z,101520.66
2022-10-09T17:11:41.349Z,101518.34
2022-10-09T17:14:08.381Z,101521.38
2022-10-09T17:16:38.570Z,101521.66
2022-10-09T17:19:06.296Z,101531.97
2022-10-09T17:21:34.653Z,101523.09
2022-10-09T17:24:04.465Z,101523.41
2022-10-09T17:26:31.597Z,101535.56
2022-10-09T17:29:00.222Z,101529.44
2022-10-09T17:31:29.358Z,101528.88
2022-10-09T17:34:00.706Z,101532.72
2022-10-09T17:36:35.150Z,101532.16
2022-10-09T17:39:04.427Z,101528.00
2022-10-09T17:41:31.974Z,101530.16
2022-10-09T17:43:59.630Z,101529.44
2022-10-09T17:46:30.480Z,101527.88
2022-10-09T17:48:59.534Z,101530.03
2022-10-09T17:51:33.062Z,101536.59
2022-10-09T17:54:09.611Z,101535.16
2022-10-09T17:56:41.254Z,101535.59
2022-10-09T17:59:09.546Z,101542.19
2022-10-09T18:01:36.996Z,101543.44
2022-10-09T18:04:04.526Z,101548.19
2022-10-09T18:06:34.583Z,101551.03
2022-10-09T18:09:02.088Z,101555.00
2022-10-09T18:11:30.249Z,101557.16
2022-10-09T18:13:58.043Z,101554.56
2022-10-09T18:16:38.446Z,101561.84
2022-10-09T18:19:14.579Z,101558.28
2022-10-09T18:21:45.374Z,101562.88
2022-10-09T18:24:14.574Z,101562.88
2022-10-09T18:26:42.825Z,101565.72
2022-10-09T18:29:09.971Z,101571.13
2022-10-09T18:31:38.776Z,101575.72
2022-10-09T18:34:05.858Z,101569.31
2022-10-09T18:36:35.049Z,101570.28
2022-10-09T18:39:11.492Z,101573.00
2022-10-09T18:41:39.725Z,101565.88
2022-10-09T18:44:13.063Z,101570.28
2022-10-09T18:46:45.516Z,101578.44
2022-10-09T18:49:16.512Z,101574.88
2022-10-09T18:51:47.724Z,101569.31
2022-10-09T18:54:18.395Z,101579.28
2022-10-09T18:56:49.146Z,101575.72
2022-10-09T18:59:21.222Z,101577.59
2022-10-09T19:01:48.306Z,101583.03
2022-10-09T19:04:15.423Z,101579.56
2022-10-09T19:06:42.689Z,101586.03
2022-10-09T19:09:09.625Z,101591.44
2022-10-09T19:11:36.732Z,101584.31
2022-10-09T19:14:03.856Z,101589.00
2022-10-09T19:16:35.814Z,101590.88
2022-10-09T19:19:03.202Z,101588.31
2022-10-09T19:21:30.484Z,101592.00
2022-10-09T19:24:03.580Z,101584.88
2022-10-09T19:26:32.753Z,101589.44
2022-10-09T19:29:00.469Z,101592.16
2022-10-09T19:31:31.538Z,101594.03
2022-10-09T19:34:03.920Z,101589.56
2022-10-09T19:36:34.523Z,101589.72
2022-10-09T19:39:03.399Z,101594.41
2022-10-09T19:41:30.790Z,101599.16
2022-10-09T19:44:00.054Z,101595.56
2022-10-09T19:46:28.019Z,101603.00
2022-10-09T19:48:55.558Z,101609.41
2022-10-09T19:51:26.493Z,101603.97
2022-10-09T19:53:54.935Z,101605.84
2022-10-09T19:56:29.986Z,101601.41
2022-10-09T19:58:59.453Z,101606.00
2022-10-09T20:01:27.355Z,101604.28
2022-10-09T20:04:00.972Z,101611.53
2022-10-09T20:06:28.715Z,101617.25
2022-10-09T20:08:57.206Z,101613.94
2022-10-09T20:11:26.810Z,101624.38
2022-10-09T20:13:56.208Z,101622.94
2022-10-09T20:16:24.610Z,101637.75
2022-10-09T20:18:53.525Z,101625.31
2022-10-09T20:21:22.643Z,101630.16
2022-10-09T20:23:50.135Z,101624.13
2022-10-09T20:26:20.921Z,101629.72
2022-10-09T20:28:49.016Z,101627.28
2022-10-09T20:31:20.123Z,101625.84
2022-10-09T20:33:49.753Z,101634.09
2022-10-09T20:36:29.971Z,101638.94
2022-10-09T20:38:59.934Z,101631.88
2022-10-09T20:41:29.487Z,101636.59
2022-10-09T20:43:59.206Z,101639.31
2022-10-09T20:46:30.045Z,101636.72
2022-10-09T20:48:57.419Z,101636.97
2022-10-09T20:51:25.282Z,101638.00
2022-10-09T20:53:58.498Z,101635.28
2022-10-09T20:56:29.010Z,101639.84
2022-10-09T20:58:57.872Z,101640.81
2022-10-09T21:01:28.417Z,101631.13
2022-10-09T21:03:57.388Z,101645.81
2022-10-09T21:06:25.289Z,101642.50
2022-10-09T21:08:53.231Z,101648.19
2022-10-09T21:11:22.904Z,101642.03
2022-10-09T21:13:50.996Z,101646.59
2022-10-09T21:16:22.391Z,101650.31
2022-10-09T21:18:59.200Z,101644.13
2022-10-09T21:21:27.560Z,101646.13
2022-10-09T21:23:57.048Z,101656.25
2022-10-09T21:26:27.876Z,101643.81
2022-10-09T21:28:59.410Z,101657.63
2022-10-09T21:31:30.690Z,101650.75
2022-10-09T21:34:00.091Z,101652.88
2022-10-09T21:37:16.438Z,101655.84
2022-10-09T21:39:36.897Z,101657.22
2022-10-09T21:42:03.996Z,101666.47
2022-10-09T21:44:31.741Z,101659.59
2022-10-09T21:46:58.969Z,101654.31
2022-10-09T21:49:28.355Z,101655.28
2022-10-09T21:51:56.048Z,101657.28
2022-10-09T21:54:23.243Z,101656.53
2022-10-09T21:56:50.294Z,101663.22
2022-10-09T21:59:17.215Z,101656.19
2022-10-09T22:01:44.239Z,101659.91
2022-10-09T22:04:11.194Z,101649.16
2022-10-09T22:06:38.263Z,101651.13
2022-10-09T22:09:06.159Z,101646.72
2022-10-09T22:11:33.377Z,101653.25
2022-10-09T22:14:00.302Z,101648.81
2022-10-09T22:16:27.250Z,101653.38
2022-10-09T22:18:54.505Z,101648.03
2022-10-09T22:21:22.962Z,101643.75
2022-10-09T22:23:50.561Z,101646.47
2022-10-09T22:26:21.255Z,101647.44
2022-10-09T22:28:49.645Z,101647.59
2022-10-09T22:31:18.828Z,101642.16
2022-10-09T22:33:54.758Z,101639.56
2022-10-09T22:36:24.472Z,101647.94
2022-10-09T22:38:57.981Z,101645.38
2022-10-09T22:41:26.281Z,101645.53
2022-10-09T22:43:56.733Z,101642.81
2022-10-09T22:46:40.789Z,101642.06
2022-10-09T22:49:12.076Z,101643.06
2022-10-09T22:51:39.230Z,101642.91
2022-10-09T22:54:06.957Z,101649.19
2022-10-09T22:56:39.178Z,101644.63
2022-10-09T22:59:08.670Z,101634.03
2022-10-09T23:01:39.303Z,101636.63
2022-10-09T23:04:11.091Z,101631.34
2022-10-09T23:06:39.319Z,101634.94
2022-10-09T23:09:09.779Z,101629.50
2022-10-09T23:11:37.064Z,101630.38
2022-10-09T23:14:05.260Z,101631.22
2022-10-09T23:16:32.753Z,101630.22
2022-10-09T23:19:06.387Z,101635.66
2022-10-09T23:21:35.979Z,101640.09
2022-10-09T23:24:04.615Z,101629.25
2022-10-09T23:26:33.019Z,101630.13
2022-10-09T23:29:08.283Z,101625.53
2022-10-09T23:31:37.088Z,101627.41
2022-10-09T23:34:05.998Z,101621.97
2022-10-09T23:36:33.542Z,101624.81
2022-10-09T23:39:03.467Z,101625.81
2022-10-09T23:41:31.981Z,101632.22
2022-10-09T23:43:59.728Z,101626.91
2022-10-09T23:46:30.062Z,101624.94
2022-10-09T23:48:57.661Z,101627.91
2022-10-09T23:51:26.679Z,101620.75
2022-10-09T23:53:54.104Z,101621.88
2022-10-09T23:56:27.387Z,101613.75
2022-10-09T23:58:55.856Z,101620.13
